Terminal Aerodrome Forecast
Issued by NWS Austin/San Antonio, TX

Home | Current Version | Previous Version | Text Only | Print | Product List | Glossary On
Versions: 1 2 3 4 5 6 7 8 9 10 11 12 13 14 15
000
FTUS44 KEWX 041739
TAFSAT
TAF
KSAT 041739Z 0418/0524 13015KT P6SM BKN040
     FM042000 13015G25KT P6SM BKN040
     FM050100 12013KT P6SM OVC040
     FM050500 12010KT P6SM OVC015
     FM050800 13010KT P6SM OVC007
     FM051400 14012KT P6SM OVC020=

USA.gov is the U.S. government's official web portal to all federal, state and local government web resources and services.